Time;durP1;ratioP1;P1;durP2;ratioP2;P2;SDS_P1;SDS_P2;PMS_P1;PMS_P2;Temp;Humidity;BMP_temperature;BMP_pressure;BME280_temperature;BME280_humidity;BME280_pressure;Samples;Min_cycle;Max_cycle;Signal;HPM_P1;HPM_P2
2023/09/22 09:51:00;;;;;;;0.40;0.20;;;20.80;1.00;;;;;;8358463;28;20220;-69
2023/09/22 09:55:09;;;;;;;0.70;0.20;;;20.70;1.00;;;;;;8267367;28;1429818;-71
2023/09/22 09:59:12;;;;;;;1.93;0.30;;;20.60;1.00;;;;;;8316066;28;20209;-71
2023/09/22 10:03:14;;;;;;;0.90;0.50;;;20.50;1.00;;;;;;8334137;28;20228;-71
2023/09/22 10:07:16;;;;;;;0.40;0.20;;;20.70;1.00;;;;;;8330726;28;20194;-72
2023/09/22 10:11:16;;;;;;;1.00;0.30;;;20.90;1.00;;;;;;8323433;28;20549;-67
2023/09/22 10:15:57;;;;;;;1.57;0.30;;;21.00;1.00;;;;;;8298244;28;20208;-71
2023/09/22 10:20:11;;;;;;;1.40;0.43;;;20.70;1.00;;;;;;8312219;28;20190;-68
2023/09/22 10:24:32;;;;;;;0.87;0.50;;;20.70;1.00;;;;;;8305250;28;20222;-70
2023/09/22 10:28:34;;;;;;;2.67;0.70;;;20.50;1.00;;;;;;8275292;28;20211;-70
2023/09/22 10:32:35;;;;;;;0.50;0.37;;;20.30;1.00;;;;;;8274681;28;20195;-68
2023/09/22 10:36:46;;;;;;;0.80;0.40;;;19.90;1.00;;;;;;8274940;28;20214;-69
2023/09/22 10:41:06;;;;;;;0.63;0.30;;;19.80;1.00;;;;;;8294352;28;20183;-69
2023/09/22 10:45:07;;;;;;;0.97;0.40;;;19.70;1.00;;;;;;8288728;28;20182;-70
2023/09/22 10:49:26;;;;;;;0.90;0.33;;;19.70;1.00;;;;;;8292703;28;20266;-69
2023/09/22 10:53:32;;;;;;;0.70;0.33;;;19.60;1.00;;;;;;8274740;28;20200;-70
2023/09/22 10:57:36;;;;;;;1.07;0.50;;;19.70;1.00;;;;;;8290530;28;20207;-71
2023/09/22 11:01:45;;;;;;;0.60;0.40;;;19.70;1.00;;;;;;8278162;28;20174;-69
2023/09/22 11:06:10;;;;;;;0.73;0.53;;;19.70;1.00;;;;;;8298073;28;20511;-71
2023/09/22 11:10:21;;;;;;;0.80;0.40;;;19.70;1.00;;;;;;8293910;28;20182;-70
2023/09/22 11:14:22;;;;;;;0.80;0.50;;;19.70;1.00;;;;;;8286374;28;20189;-70
2023/09/22 11:18:26;;;;;;;0.50;0.30;;;19.60;1.00;;;;;;8276902;28;20215;-70
2023/09/22 11:22:32;;;;;;;0.80;0.50;;;19.50;1.00;;;;;;8270242;28;20179;-70
2023/09/22 11:26:40;;;;;;;1.03;0.50;;;19.30;1.00;;;;;;8273214;28;20618;-67
2023/09/22 11:30:41;;;;;;;2.30;0.60;;;19.20;1.00;;;;;;8276742;28;20240;-70
2023/09/22 11:34:51;;;;;;;0.90;0.60;;;19.10;1.00;;;;;;8297453;28;20195;-69
2023/09/22 11:39:00;;;;;;;1.37;0.77;;;19.00;1.00;;;;;;8296215;28;20683;-71
2023/09/22 11:43:01;;;;;;;1.80;0.60;;;18.70;1.00;;;;;;8277726;28;20321;-70
2023/09/22 11:47:03;;;;;;;1.47;0.70;;;18.30;1.00;;;;;;8287277;28;20192;-71
2023/09/22 11:51:04;;;;;;;0.97;0.60;;;17.90;1.00;;;;;;8280331;28;20187;-71
2023/09/22 11:55:05;;;;;;;1.63;0.67;;;17.40;1.00;;;;;;8296181;28;20194;-68
2023/09/22 11:59:20;;;;;;;1.27;0.73;;;17.00;1.00;;;;;;8285892;28;20572;-69
2023/09/22 12:03:23;;;;;;;1.77;0.80;;;16.60;99.90;;;;;;8282336;28;20313;-69
2023/09/22 12:07:27;;;;;;;1.20;0.80;;;16.30;99.90;;;;;;8272580;28;20194;-68
2023/09/22 12:11:29;;;;;;;1.50;1.00;;;16.00;1.00;;;;;;8271361;28;20197;-69
2023/09/22 12:15:31;;;;;;;1.37;0.90;;;15.80;99.90;;;;;;8272602;28;20190;-68
2023/09/22 12:19:33;;;;;;;1.67;0.87;;;15.70;99.90;;;;;;8269920;28;20210;-69
2023/09/22 12:23:37;;;;;;;1.53;1.10;;;15.70;99.90;;;;;;8278036;28;20266;-70
2023/09/22 12:27:38;;;;;;;1.60;0.90;;;15.80;99.90;;;;;;8278756;28;20215;-69
2023/09/22 12:31:39;;;;;;;2.33;1.23;;;15.80;1.00;;;;;;8299201;28;20189;-69
2023/09/22 12:35:41;;;;;;;1.23;0.90;;;15.90;1.00;;;;;;8294618;28;20534;-69
2023/09/22 12:39:44;;;;;;;1.83;1.00;;;15.90;1.00;;;;;;8299922;28;20268;-69
2023/09/22 12:43:45;;;;;;;1.10;0.83;;;15.90;99.90;;;;;;8288117;28;20182;-69
2023/09/22 12:47:47;;;;;;;2.60;0.93;;;15.90;1.00;;;;;;8295306;28;20221;-69
2023/09/22 12:51:48;;;;;;;2.50;1.03;;;15.90;99.90;;;;;;8291371;28;20203;-68
2023/09/22 12:55:58;;;;;;;1.10;0.80;;;16.00;17.60;;;;;;8306178;28;20190;-69
2023/09/22 13:00:03;;;;;;;1.80;0.80;;;16.00;1.00;;;;;;8307382;28;20188;-69
2023/09/22 13:04:07;;;;;;;1.37;0.90;;;16.20;99.90;;;;;;8292664;28;20183;-69
2023/09/22 13:08:07;;;;;;;1.63;0.90;;;16.30;1.00;;;;;;8291895;28;20194;-70
2023/09/22 13:12:09;;;;;;;1.30;0.97;;;16.30;1.00;;;;;;8289362;28;20266;-70
2023/09/22 13:16:11;;;;;;;1.80;0.90;;;16.30;99.90;;;;;;8288208;28;20178;-69
2023/09/22 13:20:13;;;;;;;1.00;0.83;;;16.20;99.90;;;;;;8289062;28;20188;-69
2023/09/22 13:24:15;;;;;;;1.53;0.77;;;16.10;45.80;;;;;;8291682;28;20213;-69
2023/09/22 13:28:16;;;;;;;1.53;1.00;;;16.10;99.90;;;;;;8285367;28;20562;-70
2023/09/22 13:32:18;;;;;;;0.97;0.77;;;16.10;99.90;;;;;;8287722;28;20197;-69
2023/09/22 13:36:19;;;;;;;1.20;0.67;;;16.10;99.90;;;;;;8285835;28;20213;-68
2023/09/22 13:40:21;;;;;;;1.27;0.90;;;16.10;99.90;;;;;;8281802;28;20174;-67
2023/09/22 13:44:22;;;;;;;1.83;1.33;;;16.20;99.90;;;;;;8274424;28;20286;-67
2023/09/22 13:48:25;;;;;;;1.73;1.37;;;16.20;99.90;;;;;;8276968;28;20519;-68
2023/09/22 13:52:26;;;;;;;1.50;1.00;;;16.20;82.10;;;;;;8277498;28;20214;-68
2023/09/22 13:56:27;;;;;;;1.83;1.13;;;16.20;99.90;;;;;;8277995;28;20211;-68
2023/09/22 14:00:28;;;;;;;1.63;1.33;;;16.30;76.90;;;;;;8270659;28;20210;-68
2023/09/22 14:04:29;;;;;;;5.30;1.30;;;16.40;1.00;;;;;;8270614;28;20310;-68
2023/09/22 14:08:30;;;;;;;2.00;1.30;;;16.40;1.00;;;;;;8291645;28;20189;-68
2023/09/22 14:12:31;;;;;;;1.93;0.93;;;16.50;1.00;;;;;;8292598;28;20280;-68
2023/09/22 14:16:35;;;;;;;1.70;1.03;;;16.50;1.00;;;;;;8280590;28;20269;-68
2023/09/22 14:20:36;;;;;;;1.57;1.23;;;16.50;1.00;;;;;;8271748;28;20194;-69
2023/09/22 14:24:37;;;;;;;1.80;1.17;;;16.50;1.00;;;;;;8277604;28;20183;-71
2023/09/22 14:28:38;;;;;;;1.60;1.30;;;16.50;1.00;;;;;;8296372;28;20207;-69
2023/09/22 14:32:39;;;;;;;2.63;1.77;;;16.40;1.00;;;;;;8297458;28;20313;-69
2023/09/22 14:36:41;;;;;;;2.20;1.50;;;16.30;45.80;;;;;;8296211;28;20229;-70
2023/09/22 14:40:42;;;;;;;1.93;1.13;;;16.30;99.90;;;;;;8297396;28;20192;-71
2023/09/22 14:44:44;;;;;;;1.47;1.20;;;16.20;99.90;;;;;;8268421;28;20218;-71
2023/09/22 14:48:45;;;;;;;2.23;1.30;;;16.30;99.90;;;;;;8275415;28;20184;-69
2023/09/22 14:52:50;;;;;;;1.80;1.13;;;16.30;99.90;;;;;;8275869;28;20205;-70
2023/09/22 14:56:52;;;;;;;1.50;1.20;;;16.30;99.90;;;;;;8293894;28;20206;-70
2023/09/22 15:00:53;;;;;;;1.20;1.10;;;16.30;99.90;;;;;;8290460;28;20179;-70
2023/09/22 15:04:54;;;;;;;3.40;1.70;;;16.30;99.90;;;;;;8271158;28;20508;-70
2023/09/22 15:08:55;;;;;;;2.60;1.80;;;16.20;1.00;;;;;;8273248;28;20194;-69
2023/09/22 15:13:00;;;;;;;2.50;1.17;;;16.20;99.90;;;;;;8274952;28;20501;-69
2023/09/22 15:17:03;;;;;;;2.53;1.40;;;16.30;99.90;;;;;;8272928;28;20198;-69
2023/09/22 15:21:08;;;;;;;2.67;1.53;;;16.30;1.00;;;;;;8222709;28;20282;-70
2023/09/22 15:25:12;;;;;;;1.37;1.23;;;16.30;1.00;;;;;;8259030;28;20178;-69
2023/09/22 15:29:14;;;;;;;1.80;1.27;;;16.30;1.00;;;;;;8263194;28;20274;-70
2023/09/22 15:33:15;;;;;;;1.90;1.60;;;16.30;5.10;;;;;;8262191;28;20184;-69
2023/09/22 15:37:16;;;;;;;1.90;1.20;;;16.30;99.90;;;;;;8247089;28;20207;-70
2023/09/22 15:41:17;;;;;;;2.53;1.10;;;16.20;93.40;;;;;;8256418;28;20206;-70
2023/09/22 15:45:21;;;;;;;1.50;1.27;;;16.20;99.90;;;;;;8249461;28;20182;-70
2023/09/22 15:49:22;;;;;;;1.50;1.13;;;16.20;99.90;;;;;;8259413;28;20234;-69
2023/09/22 15:53:25;;;;;;;1.40;1.10;;;16.20;99.90;;;;;;8248889;28;20273;-70
2023/09/22 15:57:26;;;;;;;1.80;1.50;;;16.10;99.90;;;;;;8256762;28;20216;-70
2023/09/22 16:01:28;;;;;;;1.60;1.17;;;16.10;99.90;;;;;;8256235;28;20176;-70
2023/09/22 16:05:29;;;;;;;1.50;1.13;;;16.10;99.90;;;;;;8258817;28;20276;-70
2023/09/22 16:09:32;;;;;;;2.47;1.00;;;16.10;99.90;;;;;;8265632;28;20192;-69
2023/09/22 16:13:33;;;;;;;2.53;1.70;;;16.00;99.90;;;;;;8267332;28;20192;-70
2023/09/22 16:17:34;;;;;;;1.70;1.20;;;16.00;99.90;;;;;;8253421;28;20302;-69
2023/09/22 16:21:35;;;;;;;1.60;1.27;;;15.90;99.90;;;;;;8268092;28;20436;-70
2023/09/22 16:25:37;;;;;;;2.43;1.40;;;15.90;99.90;;;;;;8258107;28;20187;-70
2023/09/22 16:29:39;;;;;;;2.10;1.57;;;15.80;1.00;;;;;;8255841;28;20420;-70
2023/09/22 16:33:42;;;;;;;2.67;2.03;;;15.80;99.90;;;;;;8258150;28;20219;-71
2023/09/22 16:37:44;;;;;;;2.27;1.70;;;15.80;79.50;;;;;;8255632;28;20203;-70
2023/09/22 16:41:46;;;;;;;3.00;1.90;;;15.70;1.00;;;;;;8258458;28;20496;-71
2023/09/22 16:45:47;;;;;;;3.93;1.90;;;15.60;99.90;;;;;;8268101;28;20274;-70
2023/09/22 16:49:48;;;;;;;2.30;1.60;;;15.50;1.00;;;;;;8258025;28;20238;-70
2023/09/22 16:53:51;;;;;;;2.70;1.70;;;15.40;99.90;;;;;;8270522;28;20195;-70
2023/09/22 16:57:53;;;;;;;1.40;1.30;;;15.40;39.90;;;;;;8264852;28;20203;-71
2023/09/22 17:01:55;;;;;;;1.73;1.40;;;15.20;1.00;;;;;;8270928;28;20504;-71
2023/09/22 17:05:57;;;;;;;5.67;1.43;;;15.10;1.00;;;;;;8265755;28;20195;-72
2023/09/22 17:09:59;;;;;;;1.40;0.93;;;15.00;1.00;;;;;;8253831;28;20187;-69
2023/09/22 17:14:01;;;;;;;2.43;1.20;;;14.90;1.00;;;;;;8267907;28;20184;-72
2023/09/22 17:18:06;;;;;;;3.13;1.10;;;14.80;1.00;;;;;;8262438;28;20199;-71
2023/09/22 17:22:07;;;;;;;2.17;1.20;;;14.80;99.90;;;;;;8257959;28;20188;-69
2023/09/22 17:26:11;;;;;;;2.73;1.20;;;14.70;99.90;;;;;;8263164;28;20202;-69
2023/09/22 17:30:18;;;;;;;1.70;1.20;;;14.60;99.90;;;;;;8259650;28;20190;-68
2023/09/22 17:34:20;;;;;;;2.27;1.30;;;14.50;1.00;;;;;;8262969;28;20506;-69
2023/09/22 17:38:21;;;;;;;3.23;1.10;;;14.40;1.00;;;;;;8264068;28;20355;-68
2023/09/22 17:42:23;;;;;;;2.60;1.20;;;14.40;99.90;;;;;;8262742;28;20214;-69
2023/09/22 17:46:26;;;;;;;1.63;1.37;;;14.30;99.90;;;;;;8260186;28;20199;-69
2023/09/22 17:50:28;;;;;;;1.37;1.10;;;14.40;99.90;;;;;;8262191;28;20183;-71
2023/09/22 17:54:39;;;;;;;2.13;1.20;;;14.30;1.00;;;;;;8276136;28;20263;-68
2023/09/22 17:58:40;;;;;;;2.37;1.40;;;14.30;1.00;;;;;;8264998;28;20267;-69
2023/09/22 18:02:51;;;;;;;1.73;1.17;;;14.30;82.80;;;;;;8275110;28;20207;-68
2023/09/22 18:06:52;;;;;;;2.23;1.03;;;14.30;99.90;;;;;;8260109;28;20193;-70
2023/09/22 18:10:58;;;;;;;2.30;1.20;;;14.20;99.90;;;;;;8263795;28;20183;-68
2023/09/22 18:15:01;;;;;;;2.80;1.37;;;14.20;99.90;;;;;;8270484;28;20180;-68
2023/09/22 18:19:03;;;;;;;1.40;1.10;;;14.20;99.90;;;;;;8259331;28;20211;-68
2023/09/22 18:23:05;;;;;;;2.00;1.10;;;14.20;99.90;;;;;;8269413;28;20228;-68
2023/09/22 18:27:07;;;;;;;1.27;1.17;;;14.20;1.00;;;;;;8261583;28;20207;-69
2023/09/22 18:31:08;;;;;;;3.07;2.00;;;14.20;86.00;;;;;;8268634;28;20219;-67
2023/09/22 18:35:11;;;;;;;3.97;1.90;;;14.20;99.90;;;;;;8270325;28;20193;-68
2023/09/22 18:39:13;;;;;;;3.77;1.60;;;14.20;99.90;;;;;;8275934;28;20291;-69
2023/09/22 18:43:15;;;;;;;2.70;1.77;;;14.20;99.90;;;;;;8280123;28;20179;-70
2023/09/22 18:47:36;;;;;;;3.73;1.80;;;14.20;99.90;;;;;;8278292;28;20250;-69
2023/09/22 18:51:49;;;;;;;2.53;1.70;;;14.20;1.00;;;;;;8281172;28;20285;-68
2023/09/22 18:55:54;;;;;;;2.07;1.87;;;14.20;1.00;;;;;;8284212;28;20378;-69
2023/09/22 18:59:57;;;;;;;2.30;1.80;;;14.20;79.40;;;;;;8272841;28;20195;-69
2023/09/22 19:04:00;;;;;;;2.00;1.80;;;14.20;99.90;;;;;;8274796;28;20179;-70
2023/09/22 19:08:01;;;;;;;2.17;1.90;;;14.20;1.00;;;;;;8252775;28;20401;-66
2023/09/22 19:12:02;;;;;;;2.20;1.80;;;14.10;80.70;;;;;;8255683;28;20187;-67
2023/09/22 19:16:05;;;;;;;2.17;1.87;;;14.10;1.00;;;;;;8240062;28;20290;-66
2023/09/22 19:20:06;;;;;;;4.40;1.90;;;14.10;73.10;;;;;;8242971;28;20207;-65
2023/09/22 19:24:08;;;;;;;1.90;1.50;;;14.10;99.90;;;;;;8256648;28;20191;-67
2023/09/22 19:28:10;;;;;;;1.83;1.53;;;14.10;99.90;;;;;;8259673;28;20230;-66
2023/09/22 19:32:15;;;;;;;1.73;1.40;;;14.00;61.40;;;;;;8243684;28;20189;-66
2023/09/22 19:36:16;;;;;;;2.90;1.80;;;14.00;99.90;;;;;;8247257;28;20180;-66
2023/09/22 19:40:17;;;;;;;2.23;1.47;;;13.90;99.90;;;;;;8245279;28;20190;-66
2023/09/22 19:44:19;;;;;;;3.07;1.37;;;13.90;99.90;;;;;;8260985;28;20289;-66
2023/09/22 19:48:21;;;;;;;2.33;1.70;;;13.80;99.90;;;;;;8256368;28;20192;-67
2023/09/22 19:52:22;;;;;;;1.90;1.60;;;13.80;1.00;;;;;;8244285;28;20477;-65
2023/09/22 19:56:27;;;;;;;2.83;1.60;;;13.80;99.90;;;;;;8258790;28;20303;-66
2023/09/22 20:00:28;;;;;;;1.83;1.40;;;13.80;99.90;;;;;;8236187;28;20207;-65
2023/09/22 20:04:29;;;;;;;2.20;1.70;;;13.80;7.80;;;;;;8258306;28;20183;-66
2023/09/22 20:08:30;;;;;;;2.43;1.47;;;13.80;99.90;;;;;;8257879;28;20207;-65
2023/09/22 20:12:32;;;;;;;2.57;1.70;;;13.70;99.90;;;;;;8242800;28;20216;-68
2023/09/22 20:16:37;;;;;;;2.30;1.60;;;13.80;1.00;;;;;;8262228;28;20377;-69
2023/09/22 20:20:39;;;;;;;3.47;1.47;;;13.70;1.00;;;;;;8280475;28;21135;-68
2023/09/22 20:24:41;;;;;;;5.53;1.93;;;13.60;1.00;;;;;;8269706;28;20195;-69
2023/09/22 20:28:43;;;;;;;5.37;2.30;;;13.60;1.00;;;;;;8260370;28;20211;-70
2023/09/22 20:32:44;;;;;;;2.67;1.87;;;13.50;99.90;;;;;;8261622;28;20187;-68
2023/09/22 20:36:46;;;;;;;2.47;1.93;;;13.50;99.90;;;;;;8253130;28;20218;-69
2023/09/22 20:40:47;;;;;;;3.47;2.17;;;13.40;99.90;;;;;;8252961;28;20187;-69
2023/09/22 20:44:51;;;;;;;2.87;1.83;;;13.50;99.90;;;;;;8259994;28;20576;-70
2023/09/22 20:48:52;;;;;;;2.97;1.60;;;13.50;99.90;;;;;;8247302;28;20199;-68
2023/09/22 20:52:52;;;;;;;4.77;2.00;;;13.40;99.90;;;;;;8259140;28;20384;-70
2023/09/22 20:56:56;;;;;;;3.33;1.73;;;13.50;99.90;;;;;;8261844;28;20207;-70
2023/09/22 21:01:00;;;;;;;2.57;1.70;;;13.50;99.90;;;;;;8277245;28;20275;-70
2023/09/22 21:05:06;;;;;;;3.00;1.80;;;13.50;99.90;;;;;;8278084;28;20242;-72
2023/09/22 21:09:09;;;;;;;2.07;1.20;;;13.50;99.90;;;;;;8280084;28;20506;-71
2023/09/22 21:13:10;;;;;;;2.60;1.50;;;13.50;99.90;;;;;;8259389;28;20184;-69
2023/09/22 21:17:11;;;;;;;4.40;1.70;;;13.50;99.90;;;;;;8271976;28;20249;-70
2023/09/22 21:21:13;;;;;;;2.70;1.80;;;13.50;99.90;;;;;;8274203;28;20536;-70
2023/09/22 21:25:14;;;;;;;4.00;1.40;;;13.50;99.90;;;;;;8253204;28;20223;-71
2023/09/22 21:29:17;;;;;;;2.23;1.83;;;13.50;99.90;;;;;;8273437;28;20215;-69
2023/09/22 21:33:19;;;;;;;2.43;1.70;;;13.50;99.90;;;;;;8256709;28;20198;-70
2023/09/22 21:37:20;;;;;;;2.17;1.43;;;13.50;99.90;;;;;;8257329;28;20200;-70
2023/09/22 21:41:22;;;;;;;2.27;1.60;;;13.40;99.90;;;;;;8257633;28;20190;-70
2023/09/22 21:45:23;;;;;;;2.23;1.63;;;13.40;99.90;;;;;;8272432;28;20282;-71
2023/09/22 21:49:24;;;;;;;3.63;1.97;;;13.40;99.90;;;;;;8261137;28;20183;-71
2023/09/22 21:53:28;;;;;;;2.10;1.30;;;13.40;99.90;;;;;;8263853;28;20225;-69
2023/09/22 21:57:31;;;;;;;3.93;1.70;;;13.40;99.90;;;;;;8261052;28;20416;-69
2023/09/22 22:01:32;;;;;;;3.17;1.87;;;13.40;99.90;;;;;;8252170;28;20327;-69
2023/09/22 22:05:39;;;;;;;3.10;2.00;;;13.40;99.90;;;;;;8264530;28;20302;-69
2023/09/22 22:09:49;;;;;;;2.50;2.00;;;13.40;99.90;;;;;;8270761;28;20730;-73
2023/09/22 22:13:51;;;;;;;3.03;2.13;;;13.40;99.90;;;;;;8271214;28;20180;-70
2023/09/22 22:17:54;;;;;;;3.50;1.67;;;13.40;99.90;;;;;;8267399;28;20218;-69
2023/09/22 22:21:59;;;;;;;2.53;1.50;;;13.40;99.90;;;;;;8267729;28;20176;-70
2023/09/22 22:26:09;;;;;;;2.67;1.80;;;13.30;99.90;;;;;;8260761;28;20190;-71
2023/09/22 22:30:10;;;;;;;4.67;1.83;;;13.30;99.90;;;;;;8259215;28;20569;-69
2023/09/22 22:34:12;;;;;;;3.23;1.60;;;13.30;99.90;;;;;;8261858;28;20190;-70
2023/09/22 22:38:15;;;;;;;4.33;2.00;;;13.30;99.90;;;;;;8254146;28;20346;-68
2023/09/22 22:42:16;;;;;;;3.83;1.80;;;13.30;99.90;;;;;;8261010;28;20260;-67
2023/09/22 22:46:16;;;;;;;2.23;1.70;;;13.30;99.90;;;;;;8260817;28;20191;-67
2023/09/22 22:50:17;;;;;;;3.33;1.70;;;13.20;99.90;;;;;;8243151;28;20200;-67
2023/09/22 22:54:19;;;;;;;2.43;1.63;;;13.10;99.90;;;;;;8249403;28;20249;-65
2023/09/22 22:58:20;;;;;;;2.33;1.60;;;13.10;99.90;;;;;;8247378;28;20223;-68
2023/09/22 23:02:27;;;;;;;1.47;1.10;;;13.20;99.90;;;;;;8259560;28;20187;-68
2023/09/22 23:06:28;;;;;;;1.90;1.50;;;13.10;99.90;;;;;;8250311;28;20211;-65
2023/09/22 23:10:31;;;;;;;1.73;1.30;;;13.20;99.90;;;;;;8260851;28;20179;-69
2023/09/22 23:14:32;;;;;;;3.43;1.87;;;13.10;99.90;;;;;;8257508;28;20191;-67
2023/09/22 23:18:35;;;;;;;2.33;1.70;;;13.20;99.90;;;;;;8243826;28;20204;-65
2023/09/22 23:22:37;;;;;;;2.17;1.60;;;13.20;99.90;;;;;;8261657;28;20188;-66
2023/09/22 23:26:41;;;;;;;2.40;1.50;;;13.20;99.90;;;;;;8247282;28;20226;-65
2023/09/22 23:30:43;;;;;;;2.33;1.60;;;13.10;99.90;;;;;;8250336;28;20195;-66
2023/09/22 23:34:45;;;;;;;3.60;1.30;;;13.10;99.90;;;;;;8250661;28;20171;-65
2023/09/22 23:38:49;;;;;;;3.07;1.20;;;13.10;99.90;;;;;;8249029;28;20203;-67
2023/09/22 23:42:50;;;;;;;2.90;1.37;;;13.10;99.90;;;;;;8242737;28;20233;-67
2023/09/22 23:46:51;;;;;;;1.53;1.07;;;13.10;99.90;;;;;;8260516;28;20191;-69
2023/09/22 23:50:56;;;;;;;1.30;0.87;;;13.00;99.90;;;;;;8257963;28;20219;-67
2023/09/22 23:54:57;;;;;;;1.50;1.20;;;13.00;99.90;;;;;;8261283;28;20198;-67
2023/09/22 23:58:59;;;;;;;1.93;1.00;;;13.00;99.90;;;;;;8244193;28;20272;-69
